Time;durP1;ratioP1;P1;durP2;ratioP2;P2;SDS_P1;SDS_P2;PMS_P1;PMS_P2;Temp;Humidity;BMP_temperature;BMP_pressure;BME280_temperature;BME280_humidity;BME280_pressure;Samples;Min_cycle;Max_cycle;Signal;HPM_P1;HPM_P2
2021/05/11 00:00:20;;;;;;;2.55;1.42;;;;;;;;;;1475951;40;20030;-60
2021/05/11 00:01:22;;;;;;;3.42;1.58;;;;;;;;;;1476507;40;20025;-58
2021/05/11 00:02:23;;;;;;;3.83;1.85;;;;;;;;;;1475875;40;20168;-58
2021/05/11 00:03:24;;;;;;;5.90;2.00;;;;;;;;;;1476369;40;20386;-58
2021/05/11 00:04:25;;;;;;;4.50;1.90;;;;;;;;;;1476142;40;20119;-58
2021/05/11 00:05:29;;;;;;;4.43;1.80;;;;;;;;;;1476114;40;20026;-58
2021/05/11 00:06:30;;;;;;;3.03;1.88;;;;;;;;;;1476600;40;20304;-58
2021/05/11 00:07:31;;;;;;;3.15;2.03;;;;;;;;;;1476768;40;20026;-60
2021/05/11 00:08:32;;;;;;;3.40;1.42;;;;;;;;;;1476659;40;20123;-60
2021/05/11 00:09:33;;;;;;;3.03;1.40;;;;;;;;;;1476819;40;20034;-58
2021/05/11 00:10:35;;;;;;;3.40;1.58;;;;;;;;;;1476680;40;20273;-58
2021/05/11 00:11:35;;;;;;;2.45;1.50;;;;;;;;;;1476796;40;20115;-60
2021/05/11 00:12:37;;;;;;;3.70;1.65;;;;;;;;;;1476532;40;20385;-60
2021/05/11 00:13:38;;;;;;;4.13;1.40;;;;;;;;;;1476631;40;20025;-58
2021/05/11 00:14:39;;;;;;;2.95;1.35;;;;;;;;;;1476780;40;20400;-58
2021/05/11 00:15:40;;;;;;;3.83;1.38;;;;;;;;;;1476712;40;20026;-58
2021/05/11 00:16:41;;;;;;;2.10;1.40;;;;;;;;;;1476624;40;20042;-58
2021/05/11 00:17:43;;;;;;;2.20;1.30;;;;;;;;;;1476434;40;20030;-60
2021/05/11 00:18:44;;;;;;;4.00;1.45;;;;;;;;;;1476556;40;20392;-58
2021/05/11 00:19:46;;;;;;;2.67;1.33;;;;;;;;;;1476537;40;20041;-58
2021/05/11 00:20:48;;;;;;;2.38;1.40;;;;;;;;;;1476713;40;20034;-58
2021/05/11 00:21:49;;;;;;;2.92;1.30;;;;;;;;;;1476532;40;20029;-61
2021/05/11 00:22:50;;;;;;;2.25;1.02;;;;;;;;;;1476455;40;20389;-59
2021/05/11 00:23:51;;;;;;;2.20;1.13;;;;;;;;;;1476553;40;20029;-61
2021/05/11 00:24:52;;;;;;;3.30;1.40;;;;;;;;;;1476516;40;20088;-58
2021/05/11 00:25:53;;;;;;;2.13;1.20;;;;;;;;;;1476663;40;20034;-58
2021/05/11 00:26:54;;;;;;;3.60;1.33;;;;;;;;;;1476512;40;20034;-58
2021/05/11 00:27:55;;;;;;;3.13;1.30;;;;;;;;;;1476528;40;20026;-60
2021/05/11 00:28:56;;;;;;;2.17;1.27;;;;;;;;;;1476687;40;20056;-60
2021/05/11 00:29:57;;;;;;;3.33;1.45;;;;;;;;;;1476535;40;20026;-57
2021/05/11 00:30:59;;;;;;;3.03;1.40;;;;;;;;;;1476706;40;20037;-58
2021/05/11 00:32:00;;;;;;;2.10;1.27;;;;;;;;;;1476477;40;20389;-58
2021/05/11 00:33:01;;;;;;;2.53;1.30;;;;;;;;;;1476480;40;20037;-58
2021/05/11 00:34:02;;;;;;;3.63;1.10;;;;;;;;;;1476447;40;20030;-58
2021/05/11 00:35:04;;;;;;;2.38;1.20;;;;;;;;;;1476694;40;20030;-58
2021/05/11 00:36:06;;;;;;;2.67;1.25;;;;;;;;;;1476571;40;20030;-58
2021/05/11 00:37:08;;;;;;;2.10;1.25;;;;;;;;;;1476507;40;20309;-58
2021/05/11 00:38:08;;;;;;;2.63;1.10;;;;;;;;;;1476441;40;20033;-58
2021/05/11 00:39:10;;;;;;;2.78;1.02;;;;;;;;;;1476666;40;20044;-58
2021/05/11 00:40:12;;;;;;;2.13;1.10;;;;;;;;;;1476492;40;20030;-58
2021/05/11 00:41:13;;;;;;;2.55;1.20;;;;;;;;;;1476076;40;20033;-59
2021/05/11 00:42:14;;;;;;;2.83;1.30;;;;;;;;;;1476174;40;20025;-58
2021/05/11 00:43:15;;;;;;;3.42;1.23;;;;;;;;;;1476624;40;20274;-58
2021/05/11 00:44:20;;;;;;;3.08;1.30;;;;;;;;;;1476442;40;20482;-58
2021/05/11 00:45:21;;;;;;;2.60;1.10;;;;;;;;;;1476493;40;20315;-58
2021/05/11 00:46:22;;;;;;;2.72;1.45;;;;;;;;;;1476672;40;20025;-60
2021/05/11 00:47:23;;;;;;;3.22;1.40;;;;;;;;;;1476086;40;20329;-58
2021/05/11 00:48:24;;;;;;;2.95;1.20;;;;;;;;;;1475913;40;20401;-58
2021/05/11 00:49:26;;;;;;;2.08;1.15;;;;;;;;;;1476470;40;20036;-58
2021/05/11 00:50:27;;;;;;;2.35;1.13;;;;;;;;;;1476474;40;20040;-58
2021/05/11 00:51:29;;;;;;;2.10;0.98;;;;;;;;;;1476626;40;20036;-58
2021/05/11 00:52:30;;;;;;;4.88;1.08;;;;;;;;;;1476616;40;20028;-58
2021/05/11 00:53:32;;;;;;;2.70;1.10;;;;;;;;;;1476531;40;20029;-58
2021/05/11 00:54:33;;;;;;;2.38;1.30;;;;;;;;;;1476603;40;20041;-58
2021/05/11 00:55:34;;;;;;;2.90;1.50;;;;;;;;;;1476645;40;20029;-58
2021/05/11 00:56:35;;;;;;;2.42;1.10;;;;;;;;;;1476411;40;20293;-58
2021/05/11 00:57:37;;;;;;;1.80;1.10;;;;;;;;;;1476483;40;20042;-58
2021/05/11 00:58:38;;;;;;;1.95;1.00;;;;;;;;;;1476587;40;20115;-58
2021/05/11 00:59:40;;;;;;;3.53;1.20;;;;;;;;;;1476723;40;20354;-58
2021/05/11 01:00:41;;;;;;;2.45;1.08;;;;;;;;;;1476590;40;20105;-58
2021/05/11 01:01:42;;;;;;;2.45;1.20;;;;;;;;;;1476504;40;20030;-58
2021/05/11 01:02:43;;;;;;;2.20;1.10;;;;;;;;;;1476543;40;20025;-59
2021/05/11 01:03:44;;;;;;;3.60;1.30;;;;;;;;;;1476654;40;20026;-58
2021/05/11 01:04:45;;;;;;;2.53;1.25;;;;;;;;;;1476667;40;20111;-58
2021/05/11 01:05:46;;;;;;;2.90;1.10;;;;;;;;;;1476656;40;20381;-60
2021/05/11 01:06:49;;;;;;;2.95;1.27;;;;;;;;;;1476578;40;20089;-58
2021/05/11 01:07:50;;;;;;;2.25;1.15;;;;;;;;;;1476368;40;20421;-58
2021/05/11 01:08:51;;;;;;;3.17;1.23;;;;;;;;;;1476420;40;20052;-58
2021/05/11 01:09:52;;;;;;;2.33;1.25;;;;;;;;;;1476568;40;20045;-58
2021/05/11 01:10:53;;;;;;;3.38;1.35;;;;;;;;;;1476623;40;20030;-58
2021/05/11 01:11:56;;;;;;;2.17;1.25;;;;;;;;;;1476598;40;20041;-58
2021/05/11 01:12:56;;;;;;;3.90;1.40;;;;;;;;;;1476623;40;20030;-58
2021/05/11 01:13:58;;;;;;;3.35;1.30;;;;;;;;;;1476226;40;20032;-58
2021/05/11 01:14:59;;;;;;;3.00;1.30;;;;;;;;;;1476015;40;20315;-58
2021/05/11 01:16:00;;;;;;;2.30;1.08;;;;;;;;;;1475923;40;20034;-58
2021/05/11 01:17:02;;;;;;;2.58;1.27;;;;;;;;;;1476426;40;20297;-58
2021/05/11 01:18:07;;;;;;;2.67;1.30;;;;;;;;;;1476514;40;20042;-58
2021/05/11 01:19:12;;;;;;;2.35;1.27;;;;;;;;;;1476603;40;20062;-58
2021/05/11 01:20:15;;;;;;;4.05;1.40;;;;;;;;;;1476640;40;20029;-58
2021/05/11 01:21:26;;;;;;;2.50;1.27;;;;;;;;;;1476585;40;20069;-58
2021/05/11 01:22:41;;;;;;;3.92;1.40;;;;;;;;;;1476548;40;20061;-59
2021/05/11 01:24:00;;;;;;;2.95;1.33;;;;;;;;;;1476427;40;20393;-59
2021/05/11 01:25:03;;;;;;;2.35;1.33;;;;;;;;;;1476453;40;20402;-58
2021/05/11 01:26:08;;;;;;;2.70;1.30;;;;;;;;;;1476338;40;20036;-59
2021/05/11 01:27:21;;;;;;;2.67;1.25;;;;;;;;;;1476763;40;20041;-58
2021/05/11 01:28:26;;;;;;;2.47;1.30;;;;;;;;;;1476460;40;20037;-58
2021/05/11 01:29:40;;;;;;;1.83;1.10;;;;;;;;;;1476574;40;20041;-58
2021/05/11 01:31:03;;;;;;;3.58;1.20;;;;;;;;;;1476514;40;20030;-60
2021/05/11 01:44:04;;;;;;;2.28;1.20;;;;;;;;;;1476556;40;20041;-58
2021/05/11 01:48:12;;;;;;;3.50;1.20;;;;;;;;;;1467386;40;20334;-60
2021/05/11 01:49:18;;;;;;;2.30;1.20;;;;;;;;;;1473888;40;20114;-60
2021/05/11 01:50:22;;;;;;;2.70;1.30;;;;;;;;;;1476549;40;20040;-61
2021/05/11 01:51:32;;;;;;;4.50;1.27;;;;;;;;;;1475850;40;20408;-58
2021/05/11 01:52:50;;;;;;;;;;;;;;;;;;1476518;40;20030;-58
2021/05/11 01:54:20;;;;;;;2.00;1.10;;;;;;;;;;1476514;40;19933;-61
2021/05/11 01:55:38;;;;;;;1.77;1.10;;;;;;;;;;1476357;40;20069;-58
2021/05/11 02:10:39;;;;;;;2.78;1.27;;;;;;;;;;1476277;40;20304;-58
2021/05/11 02:22:40;;;;;;;2.50;1.10;;;;;;;;;;1476273;40;20025;-58
2021/05/11 02:23:41;;;;;;;2.17;1.17;;;;;;;;;;1476291;40;20030;-58
2021/05/11 02:24:42;;;;;;;3.42;1.25;;;;;;;;;;1476395;40;20116;-58
2021/05/11 02:25:44;;;;;;;1.75;1.10;;;;;;;;;;1475737;40;20486;-58
2021/05/11 02:26:45;;;;;;;2.55;1.38;;;;;;;;;;1476433;40;20021;-58
2021/05/11 02:27:46;;;;;;;2.28;1.20;;;;;;;;;;1476298;40;20036;-58
2021/05/11 02:28:47;;;;;;;3.25;1.30;;;;;;;;;;1476298;40;20132;-58
2021/05/11 02:29:49;;;;;;;2.45;1.00;;;;;;;;;;1476416;40;20093;-58
2021/05/11 02:30:50;;;;;;;2.72;1.30;;;;;;;;;;1476231;40;20282;-58
2021/05/11 02:31:51;;;;;;;2.70;1.20;;;;;;;;;;1476353;40;20095;-58
2021/05/11 02:32:52;;;;;;;3.70;1.25;;;;;;;;;;1476192;40;20029;-58
2021/05/11 02:33:53;;;;;;;1.92;1.08;;;;;;;;;;1476370;40;20033;-58
2021/05/11 02:34:54;;;;;;;3.15;1.30;;;;;;;;;;1476388;40;20026;-58
2021/05/11 02:35:56;;;;;;;2.85;1.35;;;;;;;;;;1476378;40;20037;-58
2021/05/11 02:36:56;;;;;;;2.20;1.38;;;;;;;;;;1476202;40;20069;-58
2021/05/11 02:37:58;;;;;;;3.85;1.13;;;;;;;;;;1476216;40;20037;-58
2021/05/11 02:38:58;;;;;;;2.55;1.30;;;;;;;;;;1476374;40;20030;-58
2021/05/11 02:40:00;;;;;;;3.08;1.38;;;;;;;;;;1476357;40;20127;-58
2021/05/11 02:41:03;;;;;;;3.20;1.25;;;;;;;;;;1476210;40;20042;-58
2021/05/11 02:42:05;;;;;;;3.03;1.17;;;;;;;;;;1476380;40;20029;-58
2021/05/11 02:43:10;;;;;;;2.70;1.40;;;;;;;;;;1476160;40;20034;-59
2021/05/11 02:44:14;;;;;;;1.85;1.27;;;;;;;;;;1476411;40;20037;-58
2021/05/11 02:45:16;;;;;;;4.20;1.05;;;;;;;;;;1476218;40;20034;-58
2021/05/11 02:46:17;;;;;;;2.35;1.20;;;;;;;;;;1476087;40;20393;-58
2021/05/11 02:47:19;;;;;;;2.20;1.05;;;;;;;;;;1476321;40;20040;-59
2021/05/11 02:48:20;;;;;;;2.65;1.27;;;;;;;;;;1476273;40;20064;-58
2021/05/11 02:49:24;;;;;;;2.05;1.00;;;;;;;;;;1476298;40;20026;-58
2021/05/11 02:50:27;;;;;;;2.55;1.20;;;;;;;;;;1476316;40;20289;-58
2021/05/11 02:51:28;;;;;;;2.38;1.10;;;;;;;;;;1476244;40;20285;-58
2021/05/11 02:52:29;;;;;;;2.03;0.90;;;;;;;;;;1476429;40;20111;-58
2021/05/11 02:53:31;;;;;;;2.58;1.15;;;;;;;;;;1476212;40;20469;-58
2021/05/11 02:54:33;;;;;;;1.95;1.10;;;;;;;;;;1476153;40;20300;-58
2021/05/11 02:55:34;;;;;;;4.45;1.45;;;;;;;;;;1476314;40;20030;-58
2021/05/11 02:56:36;;;;;;;2.10;1.30;;;;;;;;;;1476275;40;20037;-58
2021/05/11 02:57:37;;;;;;;2.03;1.08;;;;;;;;;;1476271;40;20030;-58
2021/05/11 02:58:38;;;;;;;4.10;1.33;;;;;;;;;;1476062;40;20049;-58
2021/05/11 02:59:39;;;;;;;2.88;1.40;;;;;;;;;;1476300;40;20029;-58
2021/05/11 03:00:42;;;;;;;2.95;1.08;;;;;;;;;;1476397;40;20029;-58
2021/05/11 03:01:42;;;;;;;2.20;1.20;;;;;;;;;;1476319;40;20029;-58
2021/05/11 03:02:44;;;;;;;3.03;1.20;;;;;;;;;;1476143;40;20037;-59
2021/05/11 03:03:45;;;;;;;2.28;1.10;;;;;;;;;;1476291;40;20040;-59
2021/05/11 03:04:46;;;;;;;1.65;1.10;;;;;;;;;;1476187;40;20368;-58
2021/05/11 03:05:47;;;;;;;2.75;1.20;;;;;;;;;;1476360;40;20026;-58
2021/05/11 03:06:48;;;;;;;2.55;1.35;;;;;;;;;;1476209;40;20033;-58
2021/05/11 03:07:49;;;;;;;2.30;1.33;;;;;;;;;;1476022;40;20275;-58
2021/05/11 03:08:50;;;;;;;3.03;1.13;;;;;;;;;;1475744;40;20040;-58
2021/05/11 03:09:51;;;;;;;1.83;1.17;;;;;;;;;;1475777;40;20036;-58
2021/05/11 03:10:52;;;;;;;2.88;1.30;;;;;;;;;;1476265;40;20045;-58
2021/05/11 03:11:55;;;;;;;2.15;1.40;;;;;;;;;;1476263;40;20026;-58
2021/05/11 03:12:57;;;;;;;1.52;0.93;;;;;;;;;;1476260;40;20132;-58
2021/05/11 03:13:58;;;;;;;2.10;1.23;;;;;;;;;;1476349;40;20037;-58
2021/05/11 03:14:59;;;;;;;2.10;1.00;;;;;;;;;;1476202;40;20030;-58
2021/05/11 03:16:00;;;;;;;2.92;1.10;;;;;;;;;;1476228;40;20034;-58
2021/05/11 03:17:01;;;;;;;2.08;1.10;;;;;;;;;;1476047;40;20036;-59
2021/05/11 03:18:03;;;;;;;2.10;1.15;;;;;;;;;;1476216;40;20040;-58
2021/05/11 03:19:03;;;;;;;2.55;1.10;;;;;;;;;;1475645;40;20088;-58
2021/05/11 03:20:06;;;;;;;3.65;1.25;;;;;;;;;;1471645;40;20092;-58
2021/05/11 03:21:08;;;;;;;2.20;1.10;;;;;;;;;;1475784;40;20030;-58
2021/05/11 03:22:09;;;;;;;1.90;1.13;;;;;;;;;;1476119;40;20045;-58
2021/05/11 03:23:11;;;;;;;1.77;1.08;;;;;;;;;;1476005;40;20026;-58
2021/05/11 03:24:11;;;;;;;2.08;1.20;;;;;;;;;;1476243;40;20036;-58
2021/05/11 03:25:13;;;;;;;2.78;1.33;;;;;;;;;;1476141;40;20033;-58
2021/05/11 03:26:14;;;;;;;3.03;1.27;;;;;;;;;;1476197;40;20026;-58
2021/05/11 03:27:17;;;;;;;1.88;1.08;;;;;;;;;;1476168;40;20026;-58
2021/05/11 03:28:18;;;;;;;3.08;1.10;;;;;;;;;;1476046;40;20379;-58
2021/05/11 03:29:19;;;;;;;1.70;1.08;;;;;;;;;;1476244;40;20038;-58
2021/05/11 03:30:20;;;;;;;1.92;1.05;;;;;;;;;;1476033;40;20034;-58
2021/05/11 03:31:22;;;;;;;2.83;1.20;;;;;;;;;;1476024;40;20033;-58
2021/05/11 03:32:22;;;;;;;2.55;1.40;;;;;;;;;;1476233;40;20041;-59
2021/05/11 03:33:24;;;;;;;2.85;1.23;;;;;;;;;;1476062;40;20301;-58
2021/05/11 03:34:24;;;;;;;3.08;1.10;;;;;;;;;;1476207;40;20030;-58
2021/05/11 03:35:26;;;;;;;3.20;1.10;;;;;;;;;;1476050;40;20373;-58
2021/05/11 03:36:27;;;;;;;2.60;1.20;;;;;;;;;;1476027;40;20298;-58
2021/05/11 03:37:28;;;;;;;3.13;1.25;;;;;;;;;;1476674;40;20037;-58
2021/05/11 03:38:29;;;;;;;2.72;1.20;;;;;;;;;;1476630;40;20388;-57
2021/05/11 03:39:34;;;;;;;3.20;1.17;;;;;;;;;;1476685;40;20026;-58
2021/05/11 03:40:36;;;;;;;3.95;1.30;;;;;;;;;;1476619;40;20037;-58
2021/05/11 03:41:39;;;;;;;2.03;1.10;;;;;;;;;;1476590;40;20030;-58
2021/05/11 03:42:49;;;;;;;2.53;1.08;;;;;;;;;;1476843;40;20036;-59
2021/05/11 03:43:54;;;;;;;2.55;1.13;;;;;;;;;;1476685;40;20040;-58
2021/05/11 03:44:58;;;;;;;3.42;1.40;;;;;;;;;;1476777;40;20115;-58
2021/05/11 03:46:01;;;;;;;2.50;1.30;;;;;;;;;;1476594;40;20029;-58
2021/05/11 03:47:03;;;;;;;2.17;1.30;;;;;;;;;;1476623;40;20026;-58
2021/05/11 03:48:05;;;;;;;2.08;1.20;;;;;;;;;;1476558;40;20026;-58
2021/05/11 03:49:07;;;;;;;2.55;1.23;;;;;;;;;;1476675;40;20115;-58
2021/05/11 03:50:09;;;;;;;2.40;1.40;;;;;;;;;;1476629;40;20030;-58
2021/05/11 03:51:11;;;;;;;3.13;1.27;;;;;;;;;;1476739;40;20029;-58
2021/05/11 03:52:12;;;;;;;2.60;1.35;;;;;;;;;;1476739;40;20035;-58
2021/05/11 03:53:13;;;;;;;2.22;1.20;;;;;;;;;;1476586;40;20119;-58
2021/05/11 03:54:14;;;;;;;1.95;1.00;;;;;;;;;;1476674;40;20393;-58
2021/05/11 03:55:16;;;;;;;3.03;1.70;;;;;;;;;;1476611;40;20041;-58
2021/05/11 03:56:17;;;;;;;2.72;1.50;;;;;;;;;;1476698;40;20029;-58
2021/05/11 03:57:18;;;;;;;2.30;1.30;;;;;;;;;;1476591;40;20033;-58
2021/05/11 03:58:19;;;;;;;2.22;1.10;;;;;;;;;;1476584;40;20037;-58
2021/05/11 03:59:22;;;;;;;3.08;1.20;;;;;;;;;;1476644;40;20030;-58
2021/05/11 04:00:22;;;;;;;2.85;1.50;;;;;;;;;;1476661;40;20038;-58
2021/05/11 04:01:24;;;;;;;1.75;1.10;;;;;;;;;;1476791;40;20037;-58
2021/05/11 04:02:25;;;;;;;2.92;1.23;;;;;;;;;;1476802;40;20036;-60
2021/05/11 04:03:26;;;;;;;4.40;1.50;;;;;;;;;;1476707;40;20033;-58
2021/05/11 04:04:27;;;;;;;2.25;1.40;;;;;;;;;;1476730;40;20034;-60
2021/05/11 04:05:28;;;;;;;3.55;1.55;;;;;;;;;;1476580;40;20033;-58
2021/05/11 04:06:29;;;;;;;2.50;1.42;;;;;;;;;;1476574;40;20026;-58
2021/05/11 04:07:30;;;;;;;2.28;1.40;;;;;;;;;;1476784;40;20042;-58
2021/05/11 04:08:41;;;;;;;3.15;1.52;;;;;;;;;;1476711;40;20037;-58
2021/05/11 04:09:45;;;;;;;3.45;1.30;;;;;;;;;;1476638;40;20309;-62
2021/05/11 04:10:52;;;;;;;2.58;1.23;;;;;;;;;;1476527;40;20347;-58
2021/05/11 04:12:12;;;;;;;1.95;1.30;;;;;;;;;;1476594;40;20388;-58
2021/05/11 04:13:36;;;;;;;;;;;;;;;;;;1477135;40;20069;-58
2021/05/11 04:16:13;;;;;;;2.00;1.17;;;;;;;;;;1476783;40;20037;-58
2021/05/11 04:17:14;;;;;;;2.25;1.10;;;;;;;;;;1476818;40;20036;-58
2021/05/11 04:18:16;;;;;;;2.70;1.17;;;;;;;;;;1476486;40;20305;-58
2021/05/11 04:19:17;;;;;;;1.90;1.10;;;;;;;;;;1476517;40;20034;-58
2021/05/11 04:20:18;;;;;;;3.50;1.20;;;;;;;;;;1476717;40;20034;-58
2021/05/11 04:21:21;;;;;;;1.75;1.10;;;;;;;;;;1476498;40;20025;-58
2021/05/11 04:22:21;;;;;;;3.17;1.10;;;;;;;;;;1476573;40;20045;-58
2021/05/11 04:23:23;;;;;;;2.90;1.10;;;;;;;;;;1475965;40;20492;-58
2021/05/11 04:24:25;;;;;;;3.40;1.40;;;;;;;;;;1476058;40;20030;-58
2021/05/11 04:25:27;;;;;;;2.20;1.20;;;;;;;;;;1476500;40;20401;-59
2021/05/11 04:26:28;;;;;;;3.08;1.23;;;;;;;;;;1476627;40;20246;-58
2021/05/11 04:27:29;;;;;;;1.95;1.15;;;;;;;;;;1476687;40;20037;-58
2021/05/11 04:28:30;;;;;;;2.22;1.20;;;;;;;;;;1476446;40;20041;-58
2021/05/11 04:29:31;;;;;;;1.90;1.02;;;;;;;;;;1476553;40;20033;-58
2021/05/11 04:30:33;;;;;;;2.15;1.10;;;;;;;;;;1476723;40;20069;-58
2021/05/11 04:31:37;;;;;;;2.88;1.40;;;;;;;;;;1476614;40;20030;-58
2021/05/11 04:32:38;;;;;;;5.50;1.23;;;;;;;;;;1476670;40;20029;-58
2021/05/11 04:33:40;;;;;;;2.25;1.10;;;;;;;;;;1476682;40;20045;-58
2021/05/11 04:34:40;;;;;;;2.85;1.10;;;;;;;;;;1476645;40;20088;-58
2021/05/11 04:35:42;;;;;;;2.78;1.00;;;;;;;;;;1476490;40;20398;-58
2021/05/11 04:36:42;;;;;;;2.78;1.17;;;;;;;;;;1476661;40;20025;-61
2021/05/11 04:37:44;;;;;;;1.70;1.20;;;;;;;;;;1476558;40;20284;-60
2021/05/11 04:38:45;;;;;;;2.30;1.38;;;;;;;;;;1476693;40;20034;-58
2021/05/11 04:39:46;;;;;;;2.72;1.20;;;;;;;;;;1476697;40;20040;-58
2021/05/11 04:40:47;;;;;;;3.58;1.30;;;;;;;;;;1476657;40;20025;-58
2021/05/11 04:41:48;;;;;;;2.63;1.13;;;;;;;;;;1476659;40;20095;-58
2021/05/11 04:42:49;;;;;;;2.30;1.10;;;;;;;;;;1476456;40;20034;-58
2021/05/11 04:43:50;;;;;;;2.55;1.20;;;;;;;;;;1476686;40;20114;-57
2021/05/11 04:44:52;;;;;;;4.90;1.23;;;;;;;;;;1476495;40;20033;-59
2021/05/11 04:46:05;;;;;;;4.55;1.52;;;;;;;;;;1476497;40;20043;-58
2021/05/11 04:47:10;;;;;;;3.40;1.10;;;;;;;;;;1476771;40;20034;-58
2021/05/11 04:48:12;;;;;;;1.90;1.20;;;;;;;;;;1476494;40;20069;-58
2021/05/11 04:49:13;;;;;;;2.50;1.10;;;;;;;;;;1476316;40;20037;-58
2021/05/11 04:50:16;;;;;;;1.70;1.00;;;;;;;;;;1476474;40;20026;-58
2021/05/11 04:51:18;;;;;;;3.10;1.15;;;;;;;;;;1476478;40;20056;-58
2021/05/11 04:52:19;;;;;;;2.00;1.13;;;;;;;;;;1476584;40;20030;-58
2021/05/11 04:53:21;;;;;;;3.42;1.00;;;;;;;;;;1476565;40;20026;-58
2021/05/11 04:54:22;;;;;;;2.13;1.00;;;;;;;;;;1476551;40;20033;-58
2021/05/11 04:55:23;;;;;;;2.33;1.20;;;;;;;;;;1476702;40;20030;-58
2021/05/11 04:56:25;;;;;;;3.17;1.25;;;;;;;;;;1476612;40;20026;-58
2021/05/11 04:57:25;;;;;;;2.70;1.20;;;;;;;;;;1476518;40;20026;-60
2021/05/11 04:58:27;;;;;;;2.88;1.20;;;;;;;;;;1476417;40;20034;-58
2021/05/11 04:59:28;;;;;;;3.08;1.20;;;;;;;;;;1476448;40;20344;-58
2021/05/11 05:00:29;;;;;;;3.80;1.60;;;;;;;;;;1476638;40;20029;-58
2021/05/11 05:01:31;;;;;;;4.80;1.25;;;;;;;;;;1476449;40;20026;-58
2021/05/11 05:02:34;;;;;;;2.53;1.25;;;;;;;;;;1476418;40;20038;-58
2021/05/11 05:03:39;;;;;;;3.00;1.15;;;;;;;;;;1476370;40;20033;-59
2021/05/11 05:04:40;;;;;;;2.17;1.20;;;;;;;;;;1476643;40;20033;-58
2021/05/11 05:05:43;;;;;;;2.42;1.30;;;;;;;;;;1476478;40;20030;-59
2021/05/11 05:06:45;;;;;;;3.63;1.58;;;;;;;;;;1476598;40;20081;-58
2021/05/11 05:07:46;;;;;;;2.15;1.27;;;;;;;;;;1476350;40;20032;-60
2021/05/11 05:08:47;;;;;;;2.90;1.38;;;;;;;;;;1476570;40;20381;-58
2021/05/11 05:09:48;;;;;;;2.92;1.30;;;;;;;;;;1476487;40;20389;-59
2021/05/11 05:10:49;;;;;;;3.00;1.40;;;;;;;;;;1476398;40;20041;-58
2021/05/11 05:11:50;;;;;;;4.07;1.35;;;;;;;;;;1476567;40;20026;-59
2021/05/11 05:12:52;;;;;;;2.22;1.20;;;;;;;;;;1476421;40;20037;-59
2021/05/11 05:13:52;;;;;;;5.60;1.27;;;;;;;;;;1476417;40;20041;-59
2021/05/11 05:14:54;;;;;;;3.38;1.35;;;;;;;;;;1476483;40;20384;-58
2021/05/11 05:15:56;;;;;;;3.72;1.40;;;;;;;;;;1476344;40;20030;-58
2021/05/11 05:16:58;;;;;;;2.75;1.50;;;;;;;;;;1476393;40;20326;-61
2021/05/11 05:17:59;;;;;;;4.20;1.75;;;;;;;;;;1476506;40;20026;-59
2021/05/11 05:19:01;;;;;;;3.40;1.58;;;;;;;;;;1476600;40;20037;-59
2021/05/11 05:20:03;;;;;;;4.82;1.75;;;;;;;;;;1476523;40;20067;-58
2021/05/11 05:21:07;;;;;;;5.95;1.73;;;;;;;;;;1476430;40;20367;-60
2021/05/11 05:22:08;;;;;;;3.75;1.67;;;;;;;;;;1476554;40;20026;-59
2021/05/11 05:23:10;;;;;;;3.53;1.80;;;;;;;;;;1476309;40;20297;-58
2021/05/11 05:24:13;;;;;;;4.10;1.80;;;;;;;;;;1476454;40;20065;-59
2021/05/11 05:25:19;;;;;;;7.70;1.80;;;;;;;;;;1476317;40;20037;-58
2021/05/11 05:26:22;;;;;;;4.15;1.60;;;;;;;;;;1476472;40;20025;-58
2021/05/11 05:27:25;;;;;;;2.92;1.77;;;;;;;;;;1476556;40;20036;-59
2021/05/11 05:28:26;;;;;;;3.38;1.50;;;;;;;;;;1476541;40;20045;-60
2021/05/11 05:29:27;;;;;;;5.57;1.40;;;;;;;;;;1476346;40;20487;-58
2021/05/11 05:30:28;;;;;;;2.92;1.75;;;;;;;;;;1476470;40;20026;-59
2021/05/11 05:31:30;;;;;;;4.65;1.85;;;;;;;;;;1476401;40;20506;-59
2021/05/11 05:32:32;;;;;;;2.13;1.40;;;;;;;;;;1476517;40;20029;-59
2021/05/11 05:33:34;;;;;;;4.22;1.75;;;;;;;;;;1476541;40;20037;-59
2021/05/11 05:34:35;;;;;;;2.83;1.73;;;;;;;;;;1476314;40;20417;-59
2021/05/11 05:35:36;;;;;;;3.45;1.70;;;;;;;;;;1476405;40;20030;-59
2021/05/11 05:36:37;;;;;;;3.50;1.48;;;;;;;;;;1476340;40;20386;-58
2021/05/11 05:37:39;;;;;;;4.47;1.83;;;;;;;;;;1476501;40;20033;-59
2021/05/11 05:38:41;;;;;;;3.75;1.90;;;;;;;;;;1476272;40;20402;-58
2021/05/11 05:39:45;;;;;;;3.45;1.90;;;;;;;;;;1476496;40;20037;-58
2021/05/11 05:40:48;;;;;;;2.53;1.52;;;;;;;;;;1476308;40;20036;-59
2021/05/11 05:41:49;;;;;;;2.80;1.55;;;;;;;;;;1476552;40;20029;-58
2021/05/11 05:42:50;;;;;;;2.88;1.63;;;;;;;;;;1476277;40;20030;-59
2021/05/11 05:43:52;;;;;;;3.55;1.80;;;;;;;;;;1476314;40;20041;-59
2021/05/11 05:44:52;;;;;;;4.38;1.70;;;;;;;;;;1476297;40;20037;-58
2021/05/11 05:45:55;;;;;;;3.92;1.65;;;;;;;;;;1476484;40;20034;-58
2021/05/11 05:46:55;;;;;;;3.63;1.95;;;;;;;;;;1476299;40;20433;-58
2021/05/11 05:47:57;;;;;;;4.47;1.90;;;;;;;;;;1476459;40;20025;-59
2021/05/11 05:48:58;;;;;;;3.90;1.67;;;;;;;;;;1476508;40;20041;-59
2021/05/11 05:50:02;;;;;;;3.95;1.80;;;;;;;;;;1476449;40;20033;-59
2021/05/11 05:51:04;;;;;;;2.92;1.60;;;;;;;;;;1476392;40;20379;-59
2021/05/11 05:52:07;;;;;;;5.93;1.60;;;;;;;;;;1476347;40;20037;-58
2021/05/11 05:53:13;;;;;;;3.50;1.70;;;;;;;;;;1476347;40;20041;-58
2021/05/11 05:54:14;;;;;;;5.75;1.88;;;;;;;;;;1476351;40;20049;-59
2021/05/11 05:55:15;;;;;;;4.05;1.70;;;;;;;;;;1476305;40;20037;-59
2021/05/11 05:56:19;;;;;;;4.15;1.70;;;;;;;;;;1476275;40;20036;-58
2021/05/11 05:57:20;;;;;;;2.65;1.60;;;;;;;;;;1476483;40;20030;-58
2021/05/11 05:58:21;;;;;;;6.55;1.90;;;;;;;;;;1476237;40;20064;-59
2021/05/11 05:59:22;;;;;;;3.22;2.00;;;;;;;;;;1476416;40;20045;-59
2021/05/11 06:00:24;;;;;;;3.15;1.58;;;;;;;;;;1475539;40;20030;-59
2021/05/11 06:01:28;;;;;;;2.53;1.55;;;;;;;;;;1476627;40;20033;-61
2021/05/11 06:02:29;;;;;;;5.78;1.67;;;;;;;;;;1476374;40;20492;-62
2021/05/11 06:03:37;;;;;;;4.95;2.00;;;;;;;;;;1476205;40;20025;-62
2021/05/11 06:04:39;;;;;;;4.57;1.95;;;;;;;;;;1476330;40;20390;-62
2021/05/11 06:05:40;;;;;;;2.85;1.40;;;;;;;;;;1476302;40;20025;-62
2021/05/11 06:06:42;;;;;;;3.10;1.60;;;;;;;;;;1476296;40;20060;-61
2021/05/11 06:07:43;;;;;;;3.03;1.90;;;;;;;;;;1476266;40;20041;-62
2021/05/11 06:08:44;;;;;;;4.95;1.90;;;;;;;;;;1476446;40;20037;-62
2021/05/11 06:09:45;;;;;;;2.88;1.90;;;;;;;;;;1476310;40;20120;-62
2021/05/11 06:10:48;;;;;;;3.00;1.70;;;;;;;;;;1476465;40;20030;-61
2021/05/11 06:11:54;;;;;;;4.53;1.90;;;;;;;;;;1476463;40;20041;-61
2021/05/11 06:12:59;;;;;;;3.78;2.03;;;;;;;;;;1476508;40;20065;-61
2021/05/11 06:14:07;;;;;;;3.65;1.95;;;;;;;;;;1476509;40;20029;-62
2021/05/11 06:17:48;;;;;;;3.03;1.52;;;;;;;;;;1475710;40;19951;-62
2021/05/11 06:18:50;;;;;;;4.10;1.98;;;;;;;;;;1475788;40;20037;-62
2021/05/11 06:19:52;;;;;;;6.25;1.88;;;;;;;;;;1476431;40;20037;-62
2021/05/11 06:20:53;;;;;;;2.70;1.63;;;;;;;;;;1476332;40;20293;-62
2021/05/11 06:21:54;;;;;;;3.65;1.70;;;;;;;;;;1476292;40;20037;-61
2021/05/11 06:22:55;;;;;;;3.33;1.92;;;;;;;;;;1476348;40;20037;-62
2021/05/11 06:23:56;;;;;;;4.28;2.22;;;;;;;;;;1476337;40;20056;-62
2021/05/11 06:24:57;;;;;;;3.47;2.40;;;;;;;;;;1476490;40;20026;-61
2021/05/11 06:25:59;;;;;;;3.78;2.50;;;;;;;;;;1476468;40;20408;-61
2021/05/11 06:26:59;;;;;;;3.75;2.53;;;;;;;;;;1476410;40;20085;-61
2021/05/11 06:28:03;;;;;;;3.20;1.75;;;;;;;;;;1476137;40;20037;-61
2021/05/11 06:29:06;;;;;;;2.53;2.00;;;;;;;;;;1476372;40;20131;-61
2021/05/11 06:30:09;;;;;;;3.72;2.08;;;;;;;;;;1476326;40;20034;-61
2021/05/11 06:31:10;;;;;;;3.88;2.05;;;;;;;;;;1476460;40;20031;-61
2021/05/11 06:32:13;;;;;;;5.53;2.35;;;;;;;;;;1476259;40;20390;-61
2021/05/11 06:33:13;;;;;;;3.90;1.85;;;;;;;;;;1476455;40;20030;-61
2021/05/11 06:34:15;;;;;;;6.47;2.65;;;;;;;;;;1476443;40;20036;-61
2021/05/11 06:35:16;;;;;;;3.45;2.10;;;;;;;;;;1476275;40;20473;-61
2021/05/11 06:36:18;;;;;;;2.97;1.80;;;;;;;;;;1476207;40;20107;-61
2021/05/11 06:37:19;;;;;;;3.45;2.00;;;;;;;;;;1476396;40;20030;-62
2021/05/11 06:38:20;;;;;;;5.75;2.10;;;;;;;;;;1476175;40;20030;-61
2021/05/11 06:39:21;;;;;;;5.53;2.20;;;;;;;;;;1476193;40;20026;-62
2021/05/11 06:40:23;;;;;;;7.03;2.42;;;;;;;;;;1476300;40;20033;-61
2021/05/11 06:41:24;;;;;;;4.13;2.70;;;;;;;;;;1476413;40;20144;-61
2021/05/11 06:42:29;;;;;;;4.07;2.30;;;;;;;;;;1476346;40;20030;-59
2021/05/11 06:43:32;;;;;;;4.57;2.05;;;;;;;;;;1476118;40;20042;-59
2021/05/11 06:44:41;;;;;;;3.13;2.00;;;;;;;;;;1476365;40;20038;-60
2021/05/11 06:48:27;;;;;;;3.08;2.10;;;;;;;;;;1476295;40;20115;-59
2021/05/11 06:49:39;;;;;;;2.78;1.90;;;;;;;;;;1476202;40;20037;-59
2021/05/11 06:52:40;;;;;;;3.55;2.22;;;;;;;;;;1476164;40;20324;-59
2021/05/11 06:53:25;;;;;;;4.07;1.90;;;;;;;;;;1476181;40;20038;-59
2021/05/11 06:54:26;;;;;;;2.85;2.00;;;;;;;;;;1476344;40;20029;-59
2021/05/11 06:55:27;;;;;;;5.72;2.00;;;;;;;;;;1476281;40;20309;-58
2021/05/11 06:56:30;;;;;;;3.58;2.10;;;;;;;;;;1476137;40;20025;-59
2021/05/11 06:57:31;;;;;;;2.80;2.00;;;;;;;;;;1476377;40;20025;-59
2021/05/11 06:58:32;;;;;;;4.72;1.90;;;;;;;;;;1476061;40;20038;-59
2021/05/11 06:59:33;;;;;;;4.53;2.30;;;;;;;;;;1476111;40;20029;-60
2021/05/11 07:00:34;;;;;;;3.05;1.80;;;;;;;;;;1476315;40;20034;-59
2021/05/11 07:01:36;;;;;;;3.22;1.80;;;;;;;;;;1476165;40;20037;-60
2021/05/11 07:02:36;;;;;;;3.20;1.85;;;;;;;;;;1476183;40;20421;-59